createdAt,value
2024-03-12T00:01:21.084Z,34.67
2024-03-12T00:03:50.624Z,35.43
2024-03-12T00:06:21.220Z,30.30
2024-03-12T00:08:49.739Z,32.00
2024-03-12T00:11:17.929Z,26.93
2024-03-12T00:13:46.748Z,29.73
2024-03-12T00:16:14.857Z,24.50
2024-03-12T00:18:44.494Z,32.33
2024-03-12T00:21:13.594Z,32.33
2024-03-12T00:23:43.506Z,35.10
2024-03-12T00:26:12.157Z,32.73
2024-03-12T00:28:40.489Z,32.20
2024-03-12T00:31:10.251Z,35.60
2024-03-12T00:33:38.793Z,29.57
2024-03-12T00:36:07.289Z,33.27
2024-03-12T00:38:35.623Z,33.60
2024-03-12T00:41:05.218Z,39.13
2024-03-12T00:43:33.841Z,33.83
2024-03-12T00:46:03.053Z,37.77
2024-03-12T00:48:31.461Z,40.27
2024-03-12T00:51:00.237Z,35.00
2024-03-12T00:53:28.632Z,38.37
2024-03-12T00:55:56.908Z,30.00
2024-03-12T00:58:26.273Z,33.10
2024-03-12T01:00:54.999Z,34.97
2024-03-12T01:03:25.326Z,31.53
2024-03-12T01:05:54.981Z,32.67
2024-03-12T01:08:24.705Z,32.23
2024-03-12T01:10:53.126Z,33.07
2024-03-12T01:13:21.680Z,31.63
2024-03-12T01:15:54.060Z,29.97
2024-03-12T01:18:22.502Z,38.37
2024-03-12T01:20:51.616Z,36.43
2024-03-12T01:23:19.558Z,41.40
2024-03-12T01:25:48.171Z,35.13
2024-03-12T01:28:16.573Z,36.03
2024-03-12T01:30:45.356Z,36.13
2024-03-12T01:33:15.081Z,42.03
2024-03-12T01:35:46.052Z,34.87
2024-03-12T01:38:15.013Z,31.00
2024-03-12T01:40:43.565Z,36.90
2024-03-12T01:43:14.035Z,34.30
2024-03-12T01:45:43.629Z,41.67
2024-03-12T01:48:12.337Z,33.90
2024-03-12T01:50:42.430Z,35.00
2024-03-12T01:53:12.314Z,36.10
2024-03-12T01:55:44.621Z,39.40
2024-03-12T01:58:16.083Z,36.03
2024-03-12T02:00:45.895Z,40.50
2024-03-12T02:03:15.249Z,34.37
2024-03-12T02:05:44.726Z,36.97
2024-03-12T02:08:13.101Z,36.90
2024-03-12T02:10:41.958Z,43.70
2024-03-12T02:13:10.416Z,42.70
2024-03-12T02:15:40.161Z,42.27
2024-03-12T02:18:10.083Z,36.10
2024-03-12T02:20:39.215Z,39.73
2024-03-12T02:23:08.771Z,37.90
2024-03-12T02:25:38.554Z,37.30
2024-03-12T02:28:07.552Z,40.63
2024-03-12T02:30:36.215Z,38.70
2024-03-12T02:33:04.849Z,43.57
2024-03-12T02:35:35.986Z,39.90
2024-03-12T02:38:04.599Z,40.90
2024-03-12T02:40:33.020Z,43.07
2024-03-12T02:43:02.434Z,37.20
2024-03-12T02:45:31.093Z,42.67
2024-03-12T02:47:59.579Z,50.63
2024-03-12T02:50:30.875Z,39.37
2024-03-12T02:52:59.741Z,41.33
2024-03-12T02:55:28.904Z,41.43
2024-03-12T02:57:57.381Z,42.37
2024-03-12T03:00:27.068Z,47.37
2024-03-12T03:02:56.115Z,40.07
2024-03-12T03:05:24.709Z,43.80
2024-03-12T03:07:53.075Z,43.10
2024-03-12T03:10:21.914Z,48.77
2024-03-12T03:12:50.588Z,47.60
2024-03-12T03:15:19.470Z,47.30
2024-03-12T03:17:50.169Z,42.73
2024-03-12T03:20:18.730Z,47.17
2024-03-12T03:22:47.343Z,51.57
2024-03-12T03:25:16.442Z,50.47
2024-03-12T03:27:45.079Z,42.83
2024-03-12T03:30:19.247Z,45.80
2024-03-12T03:32:49.689Z,47.13
2024-03-12T03:35:19.821Z,45.17
2024-03-12T03:37:48.417Z,39.90
2024-03-12T03:40:24.238Z,50.83
2024-03-12T03:42:54.556Z,49.27
2024-03-12T03:45:23.327Z,41.53
2024-03-12T03:47:53.195Z,44.60
2024-03-12T03:50:21.595Z,44.73
2024-03-12T03:52:50.036Z,48.73
2024-03-12T03:55:18.442Z,52.33
2024-03-12T03:57:48.728Z,47.13
2024-03-12T04:00:17.968Z,49.53
2024-03-12T04:02:46.703Z,43.40
2024-03-12T04:05:16.387Z,47.87
2024-03-12T04:07:45.878Z,44.83
2024-03-12T04:10:14.486Z,53.03
2024-03-12T04:12:45.926Z,49.33
2024-03-12T04:15:14.689Z,50.90
2024-03-12T04:17:45.031Z,55.03
2024-03-12T04:20:14.376Z,41.03
2024-03-12T04:22:45.358Z,51.00
2024-03-12T04:27:16.231Z,47.37
2024-03-12T04:31:35.447Z,60.30
2024-03-12T04:34:03.938Z,49.70
2024-03-12T04:36:33.958Z,50.70
2024-03-12T04:39:02.325Z,47.43
2024-03-12T04:41:30.704Z,54.10
2024-03-12T04:43:59.035Z,53.73
2024-03-12T04:49:51.685Z,50.77
2024-03-12T04:52:20.073Z,49.77
2024-03-12T04:54:48.523Z,52.40
2024-03-12T04:57:17.041Z,52.10
2024-03-12T04:59:45.440Z,60.07
2024-03-12T05:02:13.897Z,53.47
2024-03-12T05:04:42.439Z,57.80
2024-03-12T05:07:13.040Z,51.87
2024-03-12T05:09:42.869Z,53.93
2024-03-12T05:12:11.162Z,60.13
2024-03-12T05:14:40.436Z,52.43
2024-03-12T05:17:08.984Z,54.50
2024-03-12T05:19:37.547Z,60.90
2024-03-12T05:22:05.917Z,42.80
2024-03-12T05:24:36.758Z,47.37
2024-03-12T05:27:05.302Z,49.87
2024-03-12T05:29:37.958Z,55.87
2024-03-12T05:32:18.813Z,70.50
2024-03-12T05:34:48.718Z,67.17
2024-03-12T05:37:30.026Z,64.27
2024-03-12T05:40:14.258Z,65.67
2024-03-12T05:43:00.410Z,65.73
2024-03-12T05:45:46.110Z,66.87
2024-03-12T05:48:14.396Z,56.77
2024-03-12T05:50:43.773Z,64.13
2024-03-12T05:53:11.816Z,50.97
2024-03-12T05:55:42.662Z,63.93
2024-03-12T05:58:13.809Z,52.17
2024-03-12T06:00:42.045Z,59.10
2024-03-12T06:03:10.743Z,63.50
2024-03-12T06:05:38.763Z,46.20
2024-03-12T06:08:08.248Z,57.33
2024-03-12T06:10:37.776Z,52.07
2024-03-12T06:13:07.849Z,61.97
2024-03-12T06:15:36.165Z,54.47
2024-03-12T06:18:04.682Z,46.70
2024-03-12T06:20:33.136Z,54.43
2024-03-12T06:23:01.209Z,66.00
2024-03-12T06:25:29.622Z,57.67
2024-03-12T06:28:06.278Z,59.07
2024-03-12T06:30:36.642Z,52.83
2024-03-12T06:33:05.354Z,56.83
2024-03-12T06:35:33.904Z,56.87
2024-03-12T06:38:02.566Z,54.57
2024-03-12T06:40:31.020Z,63.33
2024-03-12T06:43:00.825Z,55.13
2024-03-12T06:45:29.381Z,59.00
2024-03-12T06:48:01.430Z,62.47
2024-03-12T06:50:30.062Z,64.87
2024-03-12T06:52:58.802Z,59.90
2024-03-12T06:55:28.559Z,63.87
2024-03-12T06:58:01.629Z,57.47
2024-03-12T07:00:38.503Z,55.20
2024-03-12T07:03:08.798Z,53.17
2024-03-12T07:05:38.677Z,51.57
2024-03-12T07:08:07.789Z,58.83
2024-03-12T07:10:38.326Z,52.63
2024-03-12T07:13:08.548Z,45.97
2024-03-12T07:15:40.239Z,53.33
2024-03-12T07:18:10.177Z,57.53
2024-03-12T07:20:38.966Z,57.60
2024-03-12T07:23:07.726Z,54.57
2024-03-12T07:25:36.547Z,57.73
2024-03-12T07:28:07.701Z,53.60
2024-03-12T07:30:37.449Z,55.30
2024-03-12T07:33:06.309Z,57.43
2024-03-12T07:35:36.271Z,60.90
2024-03-12T07:38:05.130Z,53.97
2024-03-12T07:40:35.628Z,55.53
2024-03-12T07:43:05.868Z,60.03
2024-03-12T07:45:34.916Z,54.27
2024-03-12T07:48:03.372Z,59.13
2024-03-12T07:50:34.426Z,60.77
2024-03-12T07:53:07.066Z,51.30
2024-03-12T07:55:36.559Z,65.83
2024-03-12T07:58:06.289Z,57.60
2024-03-12T08:00:34.884Z,60.90
2024-03-12T08:03:03.506Z,60.10
2024-03-12T08:05:35.128Z,57.90
2024-03-12T08:08:07.684Z,57.20
2024-03-12T08:10:36.085Z,53.90
2024-03-12T08:13:06.641Z,63.80
2024-03-12T08:15:35.574Z,51.57
2024-03-12T08:18:13.089Z,58.40
2024-03-12T08:20:47.388Z,66.93
2024-03-12T08:23:16.897Z,69.10
2024-03-12T08:25:55.442Z,69.77
2024-03-12T08:28:27.877Z,67.50
2024-03-12T08:31:00.044Z,54.83
2024-03-12T08:36:01.296Z,49.83
2024-03-12T08:38:30.901Z,61.20
2024-03-12T08:40:59.842Z,55.80
2024-03-12T08:43:28.068Z,53.83
2024-03-12T08:45:56.662Z,59.57
2024-03-12T08:48:25.091Z,63.53
2024-03-12T08:50:53.899Z,55.40
2024-03-12T08:53:22.269Z,65.00
2024-03-12T08:55:51.798Z,57.47
2024-03-12T08:58:20.200Z,57.63
2024-03-12T09:00:50.159Z,56.23
2024-03-12T09:03:19.322Z,50.67
2024-03-12T09:05:47.654Z,64.60
2024-03-12T09:08:18.593Z,56.53
2024-03-12T09:10:48.785Z,59.67
2024-03-12T09:13:20.193Z,63.23
2024-03-12T09:15:51.896Z,52.60
2024-03-12T09:18:24.631Z,54.17
2024-03-12T09:20:56.249Z,57.87
2024-03-12T09:23:25.001Z,56.03
2024-03-12T09:25:56.170Z,54.13
2024-03-12T09:28:25.536Z,50.83
2024-03-12T09:30:54.474Z,54.87
2024-03-12T09:33:22.852Z,55.43
2024-03-12T09:35:51.587Z,59.93
2024-03-12T09:38:20.469Z,52.73
2024-03-12T09:40:50.092Z,43.67
2024-03-12T09:43:20.199Z,48.60
2024-03-12T09:45:50.478Z,40.80
2024-03-12T09:48:18.914Z,48.07
2024-03-12T09:50:47.715Z,47.33
2024-03-12T09:53:16.679Z,56.13
2024-03-12T09:55:45.973Z,44.23
2024-03-12T09:58:14.077Z,50.10
2024-03-12T10:00:43.508Z,43.83
2024-03-12T10:03:12.949Z,52.30
2024-03-12T10:05:41.633Z,44.37
2024-03-12T10:08:14.360Z,47.57
2024-03-12T10:10:44.935Z,52.87
2024-03-12T10:13:20.876Z,49.60
2024-03-12T10:15:53.975Z,56.33
2024-03-12T10:18:25.557Z,43.73
2024-03-12T10:20:57.315Z,49.13
2024-03-12T10:23:27.307Z,48.33
2024-03-12T10:25:57.767Z,49.67
2024-03-12T10:28:31.064Z,53.07
2024-03-12T10:31:10.549Z,47.03
2024-03-12T10:33:43.932Z,47.57
2024-03-12T10:36:13.014Z,50.93
2024-03-12T10:38:42.228Z,42.80
2024-03-12T10:41:22.645Z,46.67
2024-03-12T10:43:54.823Z,49.57
2024-03-12T10:46:23.461Z,40.50
2024-03-12T10:48:52.969Z,42.47
2024-03-12T10:51:22.200Z,39.63
2024-03-12T10:53:51.707Z,42.40
2024-03-12T10:56:20.120Z,44.07
2024-03-12T10:58:49.785Z,43.77
2024-03-12T11:01:20.029Z,40.30
2024-03-12T11:03:49.450Z,48.03
2024-03-12T11:06:21.357Z,41.00
2024-03-12T11:08:50.576Z,41.87
2024-03-12T11:11:19.773Z,44.37
2024-03-12T11:13:48.348Z,43.93
2024-03-12T11:16:19.479Z,42.83
2024-03-12T11:18:49.709Z,42.47
2024-03-12T11:21:25.253Z,38.03
2024-03-12T11:23:56.658Z,45.07
2024-03-12T11:29:01.831Z,37.60
2024-03-12T11:31:36.698Z,36.67
2024-03-12T11:34:06.318Z,41.57
2024-03-12T11:36:46.521Z,40.10
2024-03-12T11:39:16.720Z,42.37
2024-03-12T11:42:13.455Z,37.40
2024-03-12T11:44:49.765Z,36.87
2024-03-12T11:47:31.096Z,42.63
2024-03-12T11:50:03.104Z,38.53
2024-03-12T11:52:34.949Z,39.40
2024-03-12T11:55:05.449Z,38.37
2024-03-12T11:57:33.873Z,39.33
2024-03-12T12:00:02.515Z,40.97
2024-03-12T12:02:30.823Z,46.00
2024-03-12T12:04:59.385Z,36.60
2024-03-12T12:07:29.573Z,35.30
2024-03-12T12:09:59.047Z,37.13
2024-03-12T12:12:29.916Z,35.60
2024-03-12T12:14:58.691Z,34.93
2024-03-12T12:17:27.434Z,36.47
2024-03-12T12:20:15.000Z,36.47
2024-03-12T12:22:47.104Z,33.30
2024-03-12T12:25:20.027Z,37.17
2024-03-12T12:27:48.836Z,39.03
2024-03-12T12:30:20.869Z,39.97
2024-03-12T12:32:52.286Z,35.70
2024-03-12T12:35:21.885Z,32.70
2024-03-12T12:37:51.891Z,30.27
2024-03-12T12:40:23.013Z,34.77
2024-03-12T12:42:52.918Z,36.57
2024-03-12T12:45:22.068Z,32.63
2024-03-12T12:47:51.307Z,34.67
2024-03-12T12:50:31.009Z,35.07
2024-03-12T12:53:00.516Z,39.87
2024-03-12T12:55:31.111Z,33.10
2024-03-12T12:58:01.001Z,43.37
2024-03-12T13:00:29.589Z,33.30
2024-03-12T13:03:18.498Z,35.27
2024-03-12T13:05:47.104Z,30.20
2024-03-12T13:08:28.141Z,32.90
2024-03-12T13:11:06.459Z,36.70
2024-03-12T13:13:36.282Z,30.47
2024-03-12T13:16:19.386Z,40.57
2024-03-12T13:18:49.423Z,35.83
2024-03-12T13:21:19.695Z,35.07
2024-03-12T13:23:48.791Z,30.07
2024-03-12T13:26:19.229Z,34.97
2024-03-12T13:28:49.115Z,30.37
2024-03-12T13:31:17.825Z,36.63
2024-03-12T13:33:48.143Z,35.50
2024-03-12T13:36:18.859Z,37.17
2024-03-12T13:38:47.051Z,32.47
2024-03-12T13:41:19.588Z,37.90
2024-03-12T13:43:53.373Z,30.97
2024-03-12T13:46:23.891Z,37.90
2024-03-12T13:48:59.007Z,36.13
2024-03-12T13:51:27.367Z,31.07
2024-03-12T13:53:55.802Z,36.90
2024-03-12T13:56:24.689Z,35.97
2024-03-12T13:58:54.329Z,36.47
2024-03-12T14:01:24.245Z,31.63
2024-03-12T14:03:55.828Z,37.77
2024-03-12T14:06:24.122Z,36.07
2024-03-12T14:08:52.607Z,36.73
2024-03-12T14:11:21.088Z,35.33
2024-03-12T14:13:51.076Z,33.13
2024-03-12T14:16:23.743Z,32.13
2024-03-12T14:18:54.085Z,28.83
2024-03-12T14:21:22.728Z,34.90
2024-03-12T14:23:51.473Z,31.53
2024-03-12T14:26:20.117Z,37.80
2024-03-12T14:28:48.246Z,40.53
2024-03-12T14:31:16.866Z,35.53
2024-03-12T14:33:49.118Z,33.70
2024-03-12T14:36:18.176Z,31.93
2024-03-12T14:38:47.964Z,36.20
2024-03-12T14:41:18.090Z,40.40
2024-03-12T14:43:46.152Z,36.83
2024-03-12T14:46:14.805Z,44.77
2024-03-12T14:48:43.239Z,40.07
2024-03-12T14:51:12.754Z,36.37
2024-03-12T14:53:41.667Z,37.83
2024-03-12T14:56:10.680Z,37.37
2024-03-12T14:58:39.046Z,35.70
2024-03-12T15:01:11.217Z,40.40
2024-03-12T15:03:39.804Z,35.53
2024-03-12T15:06:10.642Z,33.10
2024-03-12T15:08:40.114Z,32.77
2024-03-12T15:11:08.633Z,37.23
2024-03-12T15:13:37.417Z,37.93
2024-03-12T15:16:07.865Z,36.63
2024-03-12T15:18:36.991Z,34.37
2024-03-12T15:21:06.458Z,37.70
2024-03-12T15:23:34.968Z,35.43
2024-03-12T15:26:06.280Z,38.17
2024-03-12T15:28:34.865Z,38.47
2024-03-12T15:31:04.824Z,37.63
2024-03-12T15:33:34.444Z,32.13
2024-03-12T15:36:03.178Z,35.10
2024-03-12T15:38:34.118Z,38.00
2024-03-12T15:41:02.499Z,43.77
2024-03-12T15:43:32.626Z,37.83
2024-03-12T15:46:01.103Z,37.83
2024-03-12T15:48:29.151Z,43.43
2024-03-12T15:50:59.525Z,38.93
2024-03-12T15:53:28.518Z,40.53
2024-03-12T15:55:56.910Z,43.27
2024-03-12T15:58:27.325Z,40.43
2024-03-12T16:00:58.254Z,34.33
2024-03-12T16:03:26.731Z,35.57
2024-03-12T16:05:55.149Z,43.40
2024-03-12T16:08:23.586Z,41.97
2024-03-12T16:10:53.028Z,44.07
2024-03-12T16:13:22.235Z,34.53
2024-03-12T16:15:51.184Z,40.97
2024-03-12T16:18:21.514Z,43.20
2024-03-12T16:20:49.865Z,41.20
2024-03-12T16:23:18.590Z,48.60
2024-03-12T16:25:47.069Z,42.63
2024-03-12T16:28:15.420Z,33.97
2024-03-12T16:30:44.308Z,38.93
2024-03-12T16:33:12.779Z,39.27
2024-03-12T16:35:42.421Z,42.37
2024-03-12T16:38:13.781Z,42.73
2024-03-12T16:40:42.370Z,44.63
2024-03-12T16:43:10.834Z,47.23
2024-03-12T16:45:39.360Z,41.77
2024-03-12T16:48:09.814Z,38.60
2024-03-12T16:50:38.304Z,37.47
2024-03-12T16:53:08.241Z,40.20
2024-03-12T16:55:36.751Z,45.53
2024-03-12T16:58:05.881Z,43.27
2024-03-12T17:00:36.885Z,52.77
2024-03-12T17:03:06.267Z,41.40
2024-03-12T17:05:35.328Z,41.13
2024-03-12T17:08:03.579Z,43.77
2024-03-12T17:10:35.173Z,49.43
2024-03-12T17:13:04.084Z,44.13
2024-03-12T17:15:32.658Z,44.83
2024-03-12T17:18:01.574Z,38.23
2024-03-12T17:20:34.514Z,46.17
2024-03-12T17:23:05.479Z,44.90
2024-03-12T17:25:38.636Z,41.43
2024-03-12T17:28:09.387Z,43.37
2024-03-12T17:30:38.349Z,51.73
2024-03-12T17:33:07.891Z,46.70
2024-03-12T17:35:36.584Z,56.37
2024-03-12T17:38:05.373Z,57.10
2024-03-12T17:40:35.332Z,55.57
2024-03-12T17:43:03.899Z,54.47
2024-03-12T17:45:32.924Z,49.20
2024-03-12T17:48:03.186Z,53.67
2024-03-12T17:50:32.991Z,44.87
2024-03-12T17:53:03.010Z,47.43
2024-03-12T17:55:32.154Z,48.47
2024-03-12T17:58:03.469Z,50.67
2024-03-12T18:00:32.817Z,47.87
2024-03-12T18:03:01.526Z,48.90
2024-03-12T18:05:30.549Z,49.27
2024-03-12T18:07:59.065Z,44.63
2024-03-12T18:10:28.500Z,47.87
2024-03-12T18:12:57.010Z,48.77
2024-03-12T18:15:26.650Z,45.63
2024-03-12T18:17:57.417Z,46.53
2024-03-12T18:20:31.512Z,45.77
2024-03-12T18:23:00.013Z,45.13
2024-03-12T18:25:28.484Z,49.43
2024-03-12T18:27:57.965Z,42.23
2024-03-12T18:30:28.162Z,51.03
2024-03-12T18:32:58.232Z,45.37
2024-03-12T18:35:26.649Z,50.87
2024-03-12T18:37:55.001Z,47.33
2024-03-12T18:40:23.895Z,45.27
2024-03-12T18:42:52.848Z,44.53
2024-03-12T18:45:23.697Z,67.50
2024-03-12T18:47:56.412Z,58.43
2024-03-12T18:50:26.388Z,60.87
2024-03-12T18:52:54.959Z,56.90
2024-03-12T18:55:24.271Z,61.80
2024-03-12T18:57:53.316Z,61.30
2024-03-12T19:00:24.527Z,59.43
2024-03-12T19:02:58.936Z,60.63
2024-03-12T19:05:27.945Z,62.90
2024-03-12T19:07:56.722Z,64.33
2024-03-12T19:10:30.622Z,73.70
2024-03-12T19:13:00.078Z,74.80
2024-03-12T19:15:36.891Z,76.03
2024-03-12T19:18:13.752Z,82.17
2024-03-12T19:20:42.826Z,94.17
2024-03-12T19:23:12.474Z,85.93
2024-03-12T19:25:41.194Z,96.60
2024-03-12T19:28:09.393Z,81.23
2024-03-12T19:30:38.038Z,81.93
2024-03-12T19:33:09.789Z,74.87
2024-03-12T19:35:40.182Z,62.57
2024-03-12T19:38:10.397Z,61.07
2024-03-12T19:40:39.004Z,86.80
2024-03-12T19:43:07.818Z,78.90
2024-03-12T19:45:36.408Z,72.07
2024-03-12T19:48:07.203Z,74.33
2024-03-12T19:50:37.262Z,69.90
2024-03-12T19:53:05.540Z,62.03
2024-03-12T19:55:35.305Z,71.33
2024-03-12T19:58:05.462Z,67.67
2024-03-12T20:00:34.867Z,67.73
2024-03-12T20:03:06.521Z,55.30
2024-03-12T20:05:37.691Z,57.10
2024-03-12T20:08:10.127Z,64.27
2024-03-12T20:10:39.249Z,61.13
2024-03-12T20:13:07.444Z,61.40
2024-03-12T20:15:38.216Z,60.07
2024-03-12T20:18:07.599Z,65.50
2024-03-12T20:20:37.228Z,65.93
2024-03-12T20:23:07.178Z,50.77
2024-03-12T20:25:35.834Z,56.80
2024-03-12T20:28:11.058Z,59.50
2024-03-12T20:30:40.993Z,52.73
2024-03-12T20:33:13.140Z,61.63
2024-03-12T20:35:44.430Z,56.87
2024-03-12T20:38:15.152Z,64.53
2024-03-12T20:40:44.305Z,52.83
2024-03-12T20:43:12.933Z,59.17
2024-03-12T20:45:41.217Z,67.57
2024-03-12T20:48:11.604Z,61.10
2024-03-12T20:50:41.087Z,68.97
2024-03-12T20:53:11.314Z,61.37
2024-03-12T20:55:40.086Z,65.13
2024-03-12T20:58:08.398Z,64.60
2024-03-12T21:00:39.203Z,61.70
2024-03-12T21:03:10.749Z,62.30
2024-03-12T21:05:40.718Z,64.30
2024-03-12T21:08:11.017Z,66.30
2024-03-12T21:10:44.254Z,51.77
2024-03-12T21:13:13.619Z,63.70
2024-03-12T21:15:41.694Z,59.23
2024-03-12T21:18:10.546Z,49.73
2024-03-12T21:20:38.622Z,53.47
2024-03-12T21:23:09.558Z,58.57
2024-03-12T21:25:39.222Z,65.77
2024-03-12T21:28:07.403Z,87.50
2024-03-12T21:30:37.422Z,67.20
2024-03-12T21:33:05.683Z,80.97
2024-03-12T21:35:34.788Z,68.07
2024-03-12T21:38:03.019Z,97.33
2024-03-12T21:40:33.998Z,131.33
2024-03-12T21:43:05.271Z,115.20
2024-03-12T21:45:36.595Z,79.43
2024-03-12T21:48:08.618Z,112.50
2024-03-12T21:50:37.404Z,127.00
2024-03-12T21:53:09.184Z,99.50
2024-03-12T21:55:38.884Z,89.47
2024-03-12T21:58:08.790Z,97.07
2024-03-12T22:00:36.824Z,111.10
2024-03-12T22:03:05.284Z,111.50
2024-03-12T22:05:34.222Z,137.83
2024-03-12T22:08:02.292Z,116.50
2024-03-12T22:10:30.379Z,123.60
2024-03-12T22:12:58.464Z,105.13
2024-03-12T22:15:27.907Z,146.40
2024-03-12T22:17:57.279Z,122.97
2024-03-12T22:20:25.599Z,96.67
2024-03-12T22:22:54.959Z,85.97
2024-03-12T22:25:23.775Z,97.83
2024-03-12T22:27:51.914Z,115.77
2024-03-12T22:30:21.510Z,115.53
2024-03-12T22:32:51.378Z,90.73
2024-03-12T22:35:20.477Z,99.47
2024-03-12T22:37:49.452Z,90.33
2024-03-12T22:40:19.730Z,99.23
2024-03-12T22:42:48.999Z,93.37
2024-03-12T22:45:17.780Z,78.10
2024-03-12T22:47:46.258Z,79.77
2024-03-12T22:50:18.627Z,61.53
2024-03-12T22:52:48.628Z,66.83
2024-03-12T22:55:17.762Z,59.53
2024-03-12T22:57:47.720Z,49.67
2024-03-12T23:00:33.924Z,63.93
2024-03-12T23:03:02.475Z,72.33
2024-03-12T23:05:34.947Z,63.27
2024-03-12T23:08:06.277Z,58.47
2024-03-12T23:10:36.346Z,70.03
2024-03-12T23:13:05.332Z,71.80
2024-03-12T23:15:36.153Z,71.20
2024-03-12T23:18:05.231Z,69.70
2024-03-12T23:20:35.446Z,74.30
2024-03-12T23:23:03.775Z,68.60
2024-03-12T23:25:32.202Z,74.07
2024-03-12T23:28:00.841Z,74.97
2024-03-12T23:30:29.396Z,71.77
2024-03-12T23:32:59.316Z,69.90
2024-03-12T23:35:29.049Z,60.50
2024-03-12T23:37:59.178Z,69.47
2024-03-12T23:40:28.985Z,68.97
2024-03-12T23:42:57.371Z,68.53
2024-03-12T23:45:25.673Z,59.13
2024-03-12T23:47:53.749Z,63.37
2024-03-12T23:50:22.131Z,57.77
2024-03-12T23:52:50.848Z,74.13
2024-03-12T23:55:20.567Z,61.70
2024-03-12T23:57:49.863Z,63.90
